sensor_id;sensor_type;location;lat;lon;timestamp;P1;durP1;ratioP1;P2;durP2;ratioP2
25870;SDS011;13689;48.590;7.752;2024-03-08T00:00:33;46.28;;;18.92;;
25870;SDS011;13689;48.590;7.752;2024-03-08T00:02:59;47.58;;;18.95;;
25870;SDS011;13689;48.590;7.752;2024-03-08T00:05:27;32.75;;;12.98;;
25870;SDS011;13689;48.590;7.752;2024-03-08T00:07:52;40.13;;;18.60;;
25870;SDS011;13689;48.590;7.752;2024-03-08T00:10:18;41.45;;;16.63;;
25870;SDS011;13689;48.590;7.752;2024-03-08T00:12:46;30.83;;;12.85;;
25870;SDS011;13689;48.590;7.752;2024-03-08T00:15:15;43.70;;;18.85;;
25870;SDS011;13689;48.590;7.752;2024-03-08T00:17:42;40.17;;;18.30;;
25870;SDS011;13689;48.590;7.752;2024-03-08T00:20:08;49.60;;;19.92;;
25870;SDS011;13689;48.590;7.752;2024-03-08T00:22:35;45.40;;;18.70;;
25870;SDS011;13689;48.590;7.752;2024-03-08T00:25:01;47.78;;;19.00;;
25870;SDS011;13689;48.590;7.752;2024-03-08T00:27:30;37.90;;;16.08;;
25870;SDS011;13689;48.590;7.752;2024-03-08T00:29:57;52.22;;;21.08;;
25870;SDS011;13689;48.590;7.752;2024-03-08T00:32:22;45.88;;;18.20;;
25870;SDS011;13689;48.590;7.752;2024-03-08T00:34:52;47.15;;;19.90;;
25870;SDS011;13689;48.590;7.752;2024-03-08T00:37:19;47.70;;;19.67;;
25870;SDS011;13689;48.590;7.752;2024-03-08T00:39:46;44.00;;;19.60;;
25870;SDS011;13689;48.590;7.752;2024-03-08T00:42:14;44.20;;;18.35;;
25870;SDS011;13689;48.590;7.752;2024-03-08T00:44:40;43.72;;;15.80;;
25870;SDS011;13689;48.590;7.752;2024-03-08T00:47:05;38.78;;;16.63;;
25870;SDS011;13689;48.590;7.752;2024-03-08T00:49:31;39.65;;;17.23;;
25870;SDS011;13689;48.590;7.752;2024-03-08T00:51:56;44.45;;;19.92;;
25870;SDS011;13689;48.590;7.752;2024-03-08T00:54:22;44.25;;;18.80;;
25870;SDS011;13689;48.590;7.752;2024-03-08T00:56:48;47.13;;;19.80;;
25870;SDS011;13689;48.590;7.752;2024-03-08T00:59:14;46.78;;;19.92;;
25870;SDS011;13689;48.590;7.752;2024-03-08T01:01:40;41.10;;;17.00;;
25870;SDS011;13689;48.590;7.752;2024-03-08T01:04:06;43.97;;;17.02;;
25870;SDS011;13689;48.590;7.752;2024-03-08T01:06:32;43.97;;;18.48;;
25870;SDS011;13689;48.590;7.752;2024-03-08T01:08:59;42.85;;;18.52;;
25870;SDS011;13689;48.590;7.752;2024-03-08T01:11:24;41.35;;;18.30;;
25870;SDS011;13689;48.590;7.752;2024-03-08T01:13:50;41.63;;;17.23;;
25870;SDS011;13689;48.590;7.752;2024-03-08T01:16:15;40.75;;;17.88;;
25870;SDS011;13689;48.590;7.752;2024-03-08T01:18:46;40.00;;;18.17;;
25870;SDS011;13689;48.590;7.752;2024-03-08T01:21:12;46.47;;;18.45;;
25870;SDS011;13689;48.590;7.752;2024-03-08T01:23:38;38.10;;;17.05;;
25870;SDS011;13689;48.590;7.752;2024-03-08T01:26:03;36.25;;;16.83;;
25870;SDS011;13689;48.590;7.752;2024-03-08T01:28:29;41.15;;;17.58;;
25870;SDS011;13689;48.590;7.752;2024-03-08T01:30:55;39.30;;;17.63;;
25870;SDS011;13689;48.590;7.752;2024-03-08T01:33:22;39.83;;;15.45;;
25870;SDS011;13689;48.590;7.752;2024-03-08T01:38:14;39.72;;;17.00;;
25870;SDS011;13689;48.590;7.752;2024-03-08T01:40:40;40.97;;;16.13;;
25870;SDS011;13689;48.590;7.752;2024-03-08T01:43:22;37.50;;;17.13;;
25870;SDS011;13689;48.590;7.752;2024-03-08T01:45:55;37.75;;;16.92;;
25870;SDS011;13689;48.590;7.752;2024-03-08T01:48:23;39.97;;;17.15;;
25870;SDS011;13689;48.590;7.752;2024-03-08T01:50:49;45.50;;;17.75;;
25870;SDS011;13689;48.590;7.752;2024-03-08T01:53:17;41.90;;;17.45;;
25870;SDS011;13689;48.590;7.752;2024-03-08T01:55:44;38.35;;;16.80;;
25870;SDS011;13689;48.590;7.752;2024-03-08T01:58:13;32.60;;;15.48;;
25870;SDS011;13689;48.590;7.752;2024-03-08T02:00:44;44.10;;;18.35;;
25870;SDS011;13689;48.590;7.752;2024-03-08T02:03:11;44.03;;;17.60;;
25870;SDS011;13689;48.590;7.752;2024-03-08T02:05:38;42.33;;;17.48;;
25870;SDS011;13689;48.590;7.752;2024-03-08T02:08:06;41.50;;;17.55;;
25870;SDS011;13689;48.590;7.752;2024-03-08T02:10:33;39.17;;;18.60;;
25870;SDS011;13689;48.590;7.752;2024-03-08T02:12:59;41.38;;;16.67;;
25870;SDS011;13689;48.590;7.752;2024-03-08T02:18:15;54.78;;;19.70;;
25870;SDS011;13689;48.590;7.752;2024-03-08T02:20:42;50.80;;;19.58;;
25870;SDS011;13689;48.590;7.752;2024-03-08T02:23:08;42.55;;;18.33;;
25870;SDS011;13689;48.590;7.752;2024-03-08T02:25:34;43.22;;;17.92;;
25870;SDS011;13689;48.590;7.752;2024-03-08T02:28:00;44.17;;;18.77;;
25870;SDS011;13689;48.590;7.752;2024-03-08T02:30:26;48.03;;;20.08;;
25870;SDS011;13689;48.590;7.752;2024-03-08T02:32:54;41.78;;;17.98;;
25870;SDS011;13689;48.590;7.752;2024-03-08T02:35:20;44.28;;;19.38;;
25870;SDS011;13689;48.590;7.752;2024-03-08T02:37:46;47.70;;;19.05;;
25870;SDS011;13689;48.590;7.752;2024-03-08T02:40:12;39.92;;;18.02;;
25870;SDS011;13689;48.590;7.752;2024-03-08T02:42:38;43.95;;;18.92;;
25870;SDS011;13689;48.590;7.752;2024-03-08T02:45:04;40.75;;;18.67;;
25870;SDS011;13689;48.590;7.752;2024-03-08T02:47:31;41.85;;;17.85;;
25870;SDS011;13689;48.590;7.752;2024-03-08T02:49:56;45.20;;;19.10;;
25870;SDS011;13689;48.590;7.752;2024-03-08T02:52:22;40.58;;;16.65;;
25870;SDS011;13689;48.590;7.752;2024-03-08T02:54:48;37.85;;;18.60;;
25870;SDS011;13689;48.590;7.752;2024-03-08T02:57:14;42.50;;;17.83;;
25870;SDS011;13689;48.590;7.752;2024-03-08T02:59:41;35.28;;;16.58;;
25870;SDS011;13689;48.590;7.752;2024-03-08T03:02:06;41.90;;;17.27;;
25870;SDS011;13689;48.590;7.752;2024-03-08T03:04:32;41.78;;;17.95;;
25870;SDS011;13689;48.590;7.752;2024-03-08T03:07:00;39.87;;;17.50;;
25870;SDS011;13689;48.590;7.752;2024-03-08T03:09:26;44.35;;;18.48;;
25870;SDS011;13689;48.590;7.752;2024-03-08T03:11:55;43.63;;;17.58;;
25870;SDS011;13689;48.590;7.752;2024-03-08T03:14:21;37.38;;;16.17;;
25870;SDS011;13689;48.590;7.752;2024-03-08T03:16:47;44.92;;;17.00;;
25870;SDS011;13689;48.590;7.752;2024-03-08T03:19:13;37.78;;;17.02;;
25870;SDS011;13689;48.590;7.752;2024-03-08T03:21:40;39.33;;;16.27;;
25870;SDS011;13689;48.590;7.752;2024-03-08T03:26:35;40.47;;;17.17;;
25870;SDS011;13689;48.590;7.752;2024-03-08T03:29:05;42.22;;;17.73;;
25870;SDS011;13689;48.590;7.752;2024-03-08T03:31:33;45.90;;;17.83;;
25870;SDS011;13689;48.590;7.752;2024-03-08T03:33:59;44.72;;;18.48;;
25870;SDS011;13689;48.590;7.752;2024-03-08T03:36:27;44.85;;;17.67;;
25870;SDS011;13689;48.590;7.752;2024-03-08T03:38:54;47.90;;;19.03;;
25870;SDS011;13689;48.590;7.752;2024-03-08T03:41:37;42.03;;;18.23;;
25870;SDS011;13689;48.590;7.752;2024-03-08T03:44:03;49.78;;;19.30;;
25870;SDS011;13689;48.590;7.752;2024-03-08T03:46:30;47.80;;;19.42;;
25870;SDS011;13689;48.590;7.752;2024-03-08T03:48:56;47.95;;;19.92;;
25870;SDS011;13689;48.590;7.752;2024-03-08T03:51:21;44.13;;;18.15;;
25870;SDS011;13689;48.590;7.752;2024-03-08T03:53:47;48.95;;;19.92;;
25870;SDS011;13689;48.590;7.752;2024-03-08T03:56:13;46.70;;;19.10;;
25870;SDS011;13689;48.590;7.752;2024-03-08T03:58:39;42.50;;;18.90;;
25870;SDS011;13689;48.590;7.752;2024-03-08T04:01:05;45.83;;;18.80;;
25870;SDS011;13689;48.590;7.752;2024-03-08T04:03:30;46.30;;;19.48;;
25870;SDS011;13689;48.590;7.752;2024-03-08T04:05:56;47.25;;;20.15;;
25870;SDS011;13689;48.590;7.752;2024-03-08T04:08:22;42.88;;;19.15;;
25870;SDS011;13689;48.590;7.752;2024-03-08T04:10:49;41.15;;;18.52;;
25870;SDS011;13689;48.590;7.752;2024-03-08T04:13:16;48.40;;;19.30;;
25870;SDS011;13689;48.590;7.752;2024-03-08T04:15:41;38.10;;;18.13;;
25870;SDS011;13689;48.590;7.752;2024-03-08T04:18:09;32.65;;;13.40;;
25870;SDS011;13689;48.590;7.752;2024-03-08T04:20:34;45.25;;;19.15;;
25870;SDS011;13689;48.590;7.752;2024-03-08T04:23:02;45.55;;;18.88;;
25870;SDS011;13689;48.590;7.752;2024-03-08T04:25:28;43.80;;;19.75;;
25870;SDS011;13689;48.590;7.752;2024-03-08T04:27:53;40.85;;;17.73;;
25870;SDS011;13689;48.590;7.752;2024-03-08T04:30:19;41.92;;;18.30;;
25870;SDS011;13689;48.590;7.752;2024-03-08T04:32:46;34.33;;;13.25;;
25870;SDS011;13689;48.590;7.752;2024-03-08T04:35:12;45.88;;;18.38;;
25870;SDS011;13689;48.590;7.752;2024-03-08T04:37:38;46.65;;;18.67;;
25870;SDS011;13689;48.590;7.752;2024-03-08T04:40:04;42.22;;;17.80;;
25870;SDS011;13689;48.590;7.752;2024-03-08T04:42:30;43.13;;;18.40;;
25870;SDS011;13689;48.590;7.752;2024-03-08T04:45:00;39.05;;;17.38;;
25870;SDS011;13689;48.590;7.752;2024-03-08T04:47:25;40.53;;;17.38;;
25870;SDS011;13689;48.590;7.752;2024-03-08T04:49:51;40.80;;;17.10;;
25870;SDS011;13689;48.590;7.752;2024-03-08T04:52:17;42.80;;;17.52;;
25870;SDS011;13689;48.590;7.752;2024-03-08T04:54:43;43.42;;;18.00;;
25870;SDS011;13689;48.590;7.752;2024-03-08T04:57:09;42.85;;;17.23;;
25870;SDS011;13689;48.590;7.752;2024-03-08T04:59:35;41.33;;;17.75;;
25870;SDS011;13689;48.590;7.752;2024-03-08T05:02:01;40.47;;;17.83;;
25870;SDS011;13689;48.590;7.752;2024-03-08T05:04:27;43.17;;;17.58;;
25870;SDS011;13689;48.590;7.752;2024-03-08T05:06:54;41.47;;;16.58;;
25870;SDS011;13689;48.590;7.752;2024-03-08T05:09:19;36.90;;;16.02;;
25870;SDS011;13689;48.590;7.752;2024-03-08T05:11:45;39.97;;;17.63;;
25870;SDS011;13689;48.590;7.752;2024-03-08T05:14:12;35.13;;;16.27;;
25870;SDS011;13689;48.590;7.752;2024-03-08T05:16:45;39.22;;;16.52;;
25870;SDS011;13689;48.590;7.752;2024-03-08T05:19:15;46.38;;;17.58;;
25870;SDS011;13689;48.590;7.752;2024-03-08T05:21:44;43.17;;;17.30;;
25870;SDS011;13689;48.590;7.752;2024-03-08T05:24:10;40.42;;;18.05;;
25870;SDS011;13689;48.590;7.752;2024-03-08T05:26:36;37.72;;;16.08;;
25870;SDS011;13689;48.590;7.752;2024-03-08T05:29:05;40.58;;;16.20;;
25870;SDS011;13689;48.590;7.752;2024-03-08T05:31:36;45.17;;;16.85;;
25870;SDS011;13689;48.590;7.752;2024-03-08T05:34:14;38.80;;;16.58;;
25870;SDS011;13689;48.590;7.752;2024-03-08T05:36:41;40.13;;;16.20;;
25870;SDS011;13689;48.590;7.752;2024-03-08T05:39:11;35.80;;;14.63;;
25870;SDS011;13689;48.590;7.752;2024-03-08T05:41:38;38.73;;;15.57;;
25870;SDS011;13689;48.590;7.752;2024-03-08T05:44:05;36.35;;;15.18;;
25870;SDS011;13689;48.590;7.752;2024-03-08T05:46:31;36.65;;;16.30;;
25870;SDS011;13689;48.590;7.752;2024-03-08T05:48:57;39.42;;;17.15;;
25870;SDS011;13689;48.590;7.752;2024-03-08T05:51:24;36.55;;;15.90;;
25870;SDS011;13689;48.590;7.752;2024-03-08T05:53:52;46.22;;;17.92;;
25870;SDS011;13689;48.590;7.752;2024-03-08T05:56:18;41.28;;;17.30;;
25870;SDS011;13689;48.590;7.752;2024-03-08T05:58:44;36.15;;;16.33;;
25870;SDS011;13689;48.590;7.752;2024-03-08T06:01:10;37.40;;;16.88;;
25870;SDS011;13689;48.590;7.752;2024-03-08T06:03:37;41.33;;;16.67;;
25870;SDS011;13689;48.590;7.752;2024-03-08T06:06:12;34.97;;;16.05;;
25870;SDS011;13689;48.590;7.752;2024-03-08T06:11:03;24.63;;;10.35;;
25870;SDS011;13689;48.590;7.752;2024-03-08T06:13:31;30.67;;;12.45;;
25870;SDS011;13689;48.590;7.752;2024-03-08T06:15:57;36.33;;;16.23;;
25870;SDS011;13689;48.590;7.752;2024-03-08T06:18:22;36.10;;;15.02;;
25870;SDS011;13689;48.590;7.752;2024-03-08T06:20:48;36.58;;;15.65;;
25870;SDS011;13689;48.590;7.752;2024-03-08T06:23:14;40.75;;;16.42;;
25870;SDS011;13689;48.590;7.752;2024-03-08T06:25:43;39.78;;;16.50;;
25870;SDS011;13689;48.590;7.752;2024-03-08T06:28:09;35.20;;;15.52;;
25870;SDS011;13689;48.590;7.752;2024-03-08T06:30:35;37.10;;;15.65;;
25870;SDS011;13689;48.590;7.752;2024-03-08T06:33:01;40.72;;;14.52;;
25870;SDS011;13689;48.590;7.752;2024-03-08T06:35:27;42.67;;;16.95;;
25870;SDS011;13689;48.590;7.752;2024-03-08T06:37:52;38.05;;;15.27;;
25870;SDS011;13689;48.590;7.752;2024-03-08T06:40:18;34.33;;;12.88;;
25870;SDS011;13689;48.590;7.752;2024-03-08T06:42:44;38.38;;;16.30;;
25870;SDS011;13689;48.590;7.752;2024-03-08T06:45:10;38.22;;;16.70;;
25870;SDS011;13689;48.590;7.752;2024-03-08T06:47:37;37.65;;;16.10;;
25870;SDS011;13689;48.590;7.752;2024-03-08T06:50:03;37.45;;;14.13;;
25870;SDS011;13689;48.590;7.752;2024-03-08T06:52:29;36.78;;;16.52;;
25870;SDS011;13689;48.590;7.752;2024-03-08T06:54:54;38.30;;;15.40;;
25870;SDS011;13689;48.590;7.752;2024-03-08T06:57:22;44.20;;;16.63;;
25870;SDS011;13689;48.590;7.752;2024-03-08T06:59:48;35.67;;;15.73;;
25870;SDS011;13689;48.590;7.752;2024-03-08T07:02:14;37.83;;;15.85;;
25870;SDS011;13689;48.590;7.752;2024-03-08T07:04:39;34.80;;;16.30;;
25870;SDS011;13689;48.590;7.752;2024-03-08T07:07:05;19.33;;;9.75;;
25870;SDS011;13689;48.590;7.752;2024-03-08T07:09:35;29.88;;;13.43;;
25870;SDS011;13689;48.590;7.752;2024-03-08T07:12:01;35.00;;;14.60;;
25870;SDS011;13689;48.590;7.752;2024-03-08T07:14:27;31.60;;;13.48;;
25870;SDS011;13689;48.590;7.752;2024-03-08T07:16:53;33.55;;;14.00;;
25870;SDS011;13689;48.590;7.752;2024-03-08T07:19:19;34.40;;;14.82;;
25870;SDS011;13689;48.590;7.752;2024-03-08T07:21:46;32.27;;;13.93;;
25870;SDS011;13689;48.590;7.752;2024-03-08T07:24:12;34.88;;;15.20;;
25870;SDS011;13689;48.590;7.752;2024-03-08T07:26:42;31.70;;;14.30;;
25870;SDS011;13689;48.590;7.752;2024-03-08T07:29:08;33.15;;;13.70;;
25870;SDS011;13689;48.590;7.752;2024-03-08T07:31:33;33.88;;;14.52;;
25870;SDS011;13689;48.590;7.752;2024-03-08T07:34:02;33.58;;;13.48;;
25870;SDS011;13689;48.590;7.752;2024-03-08T07:36:28;33.58;;;14.98;;
25870;SDS011;13689;48.590;7.752;2024-03-08T07:38:54;29.48;;;10.48;;
25870;SDS011;13689;48.590;7.752;2024-03-08T07:41:20;35.95;;;13.57;;
25870;SDS011;13689;48.590;7.752;2024-03-08T07:43:45;35.45;;;14.95;;
25870;SDS011;13689;48.590;7.752;2024-03-08T07:46:11;28.75;;;11.98;;
25870;SDS011;13689;48.590;7.752;2024-03-08T07:48:38;28.42;;;12.18;;
25870;SDS011;13689;48.590;7.752;2024-03-08T07:51:05;32.97;;;11.93;;
25870;SDS011;13689;48.590;7.752;2024-03-08T07:53:30;31.48;;;14.20;;
25870;SDS011;13689;48.590;7.752;2024-03-08T07:55:56;28.73;;;12.50;;
25870;SDS011;13689;48.590;7.752;2024-03-08T07:58:22;28.77;;;13.15;;
25870;SDS011;13689;48.590;7.752;2024-03-08T08:00:48;34.33;;;14.15;;
25870;SDS011;13689;48.590;7.752;2024-03-08T08:03:14;31.08;;;13.15;;
25870;SDS011;13689;48.590;7.752;2024-03-08T08:05:41;37.38;;;15.32;;
25870;SDS011;13689;48.590;7.752;2024-03-08T08:08:10;32.50;;;12.80;;
25870;SDS011;13689;48.590;7.752;2024-03-08T08:10:36;39.03;;;15.30;;
25870;SDS011;13689;48.590;7.752;2024-03-08T08:13:02;32.55;;;14.98;;
25870;SDS011;13689;48.590;7.752;2024-03-08T08:15:29;33.40;;;14.43;;
25870;SDS011;13689;48.590;7.752;2024-03-08T08:17:55;30.58;;;14.20;;
25870;SDS011;13689;48.590;7.752;2024-03-08T08:20:21;29.98;;;13.60;;
25870;SDS011;13689;48.590;7.752;2024-03-08T08:22:48;31.77;;;13.32;;
25870;SDS011;13689;48.590;7.752;2024-03-08T08:25:13;20.63;;;9.25;;
25870;SDS011;13689;48.590;7.752;2024-03-08T08:27:40;29.63;;;13.55;;
25870;SDS011;13689;48.590;7.752;2024-03-08T08:30:07;23.63;;;10.73;;
25870;SDS011;13689;48.590;7.752;2024-03-08T08:32:34;31.92;;;13.60;;
25870;SDS011;13689;48.590;7.752;2024-03-08T08:35:04;30.15;;;12.20;;
25870;SDS011;13689;48.590;7.752;2024-03-08T08:37:31;24.17;;;11.65;;
25870;SDS011;13689;48.590;7.752;2024-03-08T08:39:57;28.77;;;12.52;;
25870;SDS011;13689;48.590;7.752;2024-03-08T08:42:23;14.23;;;6.78;;
25870;SDS011;13689;48.590;7.752;2024-03-08T08:44:49;25.00;;;12.98;;
25870;SDS011;13689;48.590;7.752;2024-03-08T08:47:17;25.70;;;10.80;;
25870;SDS011;13689;48.590;7.752;2024-03-08T08:49:44;25.33;;;12.13;;
25870;SDS011;13689;48.590;7.752;2024-03-08T08:52:11;22.60;;;12.32;;
25870;SDS011;13689;48.590;7.752;2024-03-08T08:54:37;27.13;;;11.88;;
25870;SDS011;13689;48.590;7.752;2024-03-08T08:57:02;22.20;;;12.00;;
25870;SDS011;13689;48.590;7.752;2024-03-08T08:59:32;23.27;;;12.20;;
25870;SDS011;13689;48.590;7.752;2024-03-08T09:02:00;25.70;;;11.90;;
25870;SDS011;13689;48.590;7.752;2024-03-08T09:04:26;22.65;;;10.73;;
25870;SDS011;13689;48.590;7.752;2024-03-08T09:06:54;22.33;;;12.15;;
25870;SDS011;13689;48.590;7.752;2024-03-08T09:09:19;25.73;;;12.73;;
25870;SDS011;13689;48.590;7.752;2024-03-08T09:11:47;22.77;;;11.98;;
25870;SDS011;13689;48.590;7.752;2024-03-08T09:14:12;25.50;;;11.38;;
25870;SDS011;13689;48.590;7.752;2024-03-08T09:16:39;20.42;;;12.07;;
25870;SDS011;13689;48.590;7.752;2024-03-08T09:19:05;21.77;;;12.32;;
25870;SDS011;13689;48.590;7.752;2024-03-08T09:21:36;22.38;;;11.43;;
25870;SDS011;13689;48.590;7.752;2024-03-08T09:24:02;17.88;;;10.30;;
25870;SDS011;13689;48.590;7.752;2024-03-08T09:26:28;19.85;;;12.02;;
25870;SDS011;13689;48.590;7.752;2024-03-08T09:28:53;21.70;;;11.55;;
25870;SDS011;13689;48.590;7.752;2024-03-08T09:31:22;22.67;;;11.52;;
25870;SDS011;13689;48.590;7.752;2024-03-08T09:33:47;18.25;;;10.63;;
25870;SDS011;13689;48.590;7.752;2024-03-08T09:36:13;21.85;;;10.85;;
25870;SDS011;13689;48.590;7.752;2024-03-08T09:38:39;22.00;;;12.20;;
25870;SDS011;13689;48.590;7.752;2024-03-08T09:41:05;18.75;;;10.90;;
25870;SDS011;13689;48.590;7.752;2024-03-08T09:43:31;19.60;;;10.50;;
25870;SDS011;13689;48.590;7.752;2024-03-08T09:45:57;20.88;;;11.20;;
25870;SDS011;13689;48.590;7.752;2024-03-08T09:48:23;18.67;;;10.70;;
25870;SDS011;13689;48.590;7.752;2024-03-08T09:50:51;18.65;;;10.65;;
25870;SDS011;13689;48.590;7.752;2024-03-08T09:53:16;20.98;;;11.40;;
25870;SDS011;13689;48.590;7.752;2024-03-08T09:55:42;16.80;;;10.52;;
25870;SDS011;13689;48.590;7.752;2024-03-08T09:58:10;17.52;;;9.95;;
25870;SDS011;13689;48.590;7.752;2024-03-08T10:00:46;19.13;;;10.55;;
25870;SDS011;13689;48.590;7.752;2024-03-08T10:03:12;18.60;;;10.65;;
25870;SDS011;13689;48.590;7.752;2024-03-08T10:05:41;20.13;;;11.00;;
25870;SDS011;13689;48.590;7.752;2024-03-08T10:08:08;16.90;;;10.27;;
25870;SDS011;13689;48.590;7.752;2024-03-08T10:10:34;17.45;;;8.68;;
25870;SDS011;13689;48.590;7.752;2024-03-08T10:13:00;16.00;;;8.50;;
25870;SDS011;13689;48.590;7.752;2024-03-08T10:15:27;20.48;;;10.13;;
25870;SDS011;13689;48.590;7.752;2024-03-08T10:17:58;20.58;;;11.38;;
25870;SDS011;13689;48.590;7.752;2024-03-08T10:20:24;19.88;;;10.50;;
25870;SDS011;13689;48.590;7.752;2024-03-08T10:22:51;17.65;;;10.73;;
25870;SDS011;13689;48.590;7.752;2024-03-08T10:25:18;19.02;;;11.80;;
25870;SDS011;13689;48.590;7.752;2024-03-08T10:27:44;18.05;;;10.73;;
25870;SDS011;13689;48.590;7.752;2024-03-08T10:30:11;14.93;;;8.77;;
25870;SDS011;13689;48.590;7.752;2024-03-08T10:32:39;15.40;;;8.82;;
25870;SDS011;13689;48.590;7.752;2024-03-08T10:35:08;17.20;;;10.07;;
25870;SDS011;13689;48.590;7.752;2024-03-08T10:37:36;16.63;;;10.52;;
25870;SDS011;13689;48.590;7.752;2024-03-08T10:40:17;21.70;;;11.73;;
25870;SDS011;13689;48.590;7.752;2024-03-08T10:42:54;19.73;;;11.07;;
25870;SDS011;13689;48.590;7.752;2024-03-08T10:50:48;18.98;;;10.82;;
25870;SDS011;13689;48.590;7.752;2024-03-08T10:53:17;19.95;;;11.18;;
25870;SDS011;13689;48.590;7.752;2024-03-08T10:55:46;12.50;;;5.70;;
25870;SDS011;13689;48.590;7.752;2024-03-08T10:58:12;25.48;;;12.02;;
25870;SDS011;13689;48.590;7.752;2024-03-08T11:00:37;26.73;;;13.27;;
25870;SDS011;13689;48.590;7.752;2024-03-08T11:03:04;20.27;;;9.13;;
25870;SDS011;13689;48.590;7.752;2024-03-08T11:05:39;24.95;;;11.93;;
25870;SDS011;13689;48.590;7.752;2024-03-08T11:10:51;30.08;;;11.55;;
25870;SDS011;13689;48.590;7.752;2024-03-08T11:16:11;25.85;;;12.75;;
25870;SDS011;13689;48.590;7.752;2024-03-08T11:18:37;29.00;;;12.85;;
25870;SDS011;13689;48.590;7.752;2024-03-08T11:21:04;26.42;;;11.35;;
25870;SDS011;13689;48.590;7.752;2024-03-08T11:23:37;22.63;;;11.88;;
25870;SDS011;13689;48.590;7.752;2024-03-08T11:26:03;24.88;;;11.15;;
25870;SDS011;13689;48.590;7.752;2024-03-08T11:49:12;9.82;;;4.57;;
25870;SDS011;13689;48.590;7.752;2024-03-08T11:51:41;26.08;;;12.32;;
25870;SDS011;13689;48.590;7.752;2024-03-08T11:54:10;24.63;;;12.23;;
25870;SDS011;13689;48.590;7.752;2024-03-08T11:56:40;23.15;;;11.63;;
25870;SDS011;13689;48.590;7.752;2024-03-08T11:59:10;22.27;;;11.15;;
25870;SDS011;13689;48.590;7.752;2024-03-08T12:01:37;26.75;;;12.77;;
25870;SDS011;13689;48.590;7.752;2024-03-08T12:04:03;23.20;;;11.18;;
25870;SDS011;13689;48.590;7.752;2024-03-08T12:06:39;27.13;;;11.93;;
25870;SDS011;13689;48.590;7.752;2024-03-08T12:09:09;23.50;;;11.10;;
25870;SDS011;13689;48.590;7.752;2024-03-08T12:11:36;24.83;;;11.00;;
25870;SDS011;13689;48.590;7.752;2024-03-08T12:14:02;15.82;;;7.20;;
25870;SDS011;13689;48.590;7.752;2024-03-08T12:16:28;26.10;;;11.60;;
25870;SDS011;13689;48.590;7.752;2024-03-08T12:18:54;24.77;;;12.38;;
25870;SDS011;13689;48.590;7.752;2024-03-08T12:21:20;23.15;;;11.35;;
25870;SDS011;13689;48.590;7.752;2024-03-08T12:23:47;19.02;;;8.63;;
25870;SDS011;13689;48.590;7.752;2024-03-08T12:26:16;17.65;;;8.43;;
25870;SDS011;13689;48.590;7.752;2024-03-08T12:28:43;28.53;;;12.13;;
25870;SDS011;13689;48.590;7.752;2024-03-08T12:31:13;16.57;;;8.60;;
25870;SDS011;13689;48.590;7.752;2024-03-08T12:33:48;20.98;;;10.80;;
25870;SDS011;13689;48.590;7.752;2024-03-08T12:36:14;24.95;;;11.60;;
25870;SDS011;13689;48.590;7.752;2024-03-08T12:38:45;16.50;;;8.23;;
25870;SDS011;13689;48.590;7.752;2024-03-08T12:41:13;16.83;;;7.15;;
25870;SDS011;13689;48.590;7.752;2024-03-08T12:43:42;14.48;;;5.53;;
25870;SDS011;13689;48.590;7.752;2024-03-08T12:46:13;22.45;;;9.80;;
25870;SDS011;13689;48.590;7.752;2024-03-08T12:48:39;21.85;;;10.35;;
25870;SDS011;13689;48.590;7.752;2024-03-08T12:51:08;8.07;;;4.43;;
25870;SDS011;13689;48.590;7.752;2024-03-08T12:53:35;22.00;;;10.50;;
25870;SDS011;13689;48.590;7.752;2024-03-08T12:56:00;20.33;;;9.80;;
25870;SDS011;13689;48.590;7.752;2024-03-08T12:58:26;24.20;;;10.63;;
25870;SDS011;13689;48.590;7.752;2024-03-08T13:00:52;23.10;;;10.52;;
25870;SDS011;13689;48.590;7.752;2024-03-08T13:03:18;10.70;;;5.70;;
25870;SDS011;13689;48.590;7.752;2024-03-08T13:05:43;17.50;;;8.95;;
25870;SDS011;13689;48.590;7.752;2024-03-08T13:08:09;24.05;;;10.02;;
25870;SDS011;13689;48.590;7.752;2024-03-08T13:10:41;21.58;;;11.65;;
25870;SDS011;13689;48.590;7.752;2024-03-08T13:13:08;21.27;;;10.00;;
25870;SDS011;13689;48.590;7.752;2024-03-08T13:15:35;15.57;;;7.60;;
25870;SDS011;13689;48.590;7.752;2024-03-08T13:18:01;11.10;;;4.82;;
25870;SDS011;13689;48.590;7.752;2024-03-08T13:20:26;20.92;;;9.80;;
25870;SDS011;13689;48.590;7.752;2024-03-08T13:22:53;21.13;;;10.43;;
25870;SDS011;13689;48.590;7.752;2024-03-08T13:25:20;18.98;;;9.60;;
25870;SDS011;13689;48.590;7.752;2024-03-08T13:27:46;23.50;;;10.82;;
25870;SDS011;13689;48.590;7.752;2024-03-08T13:30:12;9.35;;;5.38;;
25870;SDS011;13689;48.590;7.752;2024-03-08T13:32:42;22.55;;;9.85;;
25870;SDS011;13689;48.590;7.752;2024-03-08T13:35:10;19.77;;;8.30;;
25870;SDS011;13689;48.590;7.752;2024-03-08T13:37:40;23.58;;;11.10;;
25870;SDS011;13689;48.590;7.752;2024-03-08T13:40:07;26.73;;;11.40;;
25870;SDS011;13689;48.590;7.752;2024-03-08T13:42:39;11.32;;;5.28;;
25870;SDS011;13689;48.590;7.752;2024-03-08T13:45:05;22.50;;;11.10;;
25870;SDS011;13689;48.590;7.752;2024-03-08T13:47:35;17.20;;;8.43;;
25870;SDS011;13689;48.590;7.752;2024-03-08T13:50:02;20.45;;;10.63;;
25870;SDS011;13689;48.590;7.752;2024-03-08T13:52:29;19.65;;;9.68;;
25870;SDS011;13689;48.590;7.752;2024-03-08T13:54:54;17.45;;;9.05;;
25870;SDS011;13689;48.590;7.752;2024-03-08T13:57:20;9.38;;;5.60;;
25870;SDS011;13689;48.590;7.752;2024-03-08T13:59:47;18.25;;;8.88;;
25870;SDS011;13689;48.590;7.752;2024-03-08T14:02:16;24.25;;;10.68;;
25870;SDS011;13689;48.590;7.752;2024-03-08T14:04:42;11.05;;;5.45;;
25870;SDS011;13689;48.590;7.752;2024-03-08T14:07:08;22.00;;;8.90;;
25870;SDS011;13689;48.590;7.752;2024-03-08T14:09:33;21.73;;;10.98;;
25870;SDS011;13689;48.590;7.752;2024-03-08T14:12:02;9.52;;;4.72;;
25870;SDS011;13689;48.590;7.752;2024-03-08T14:14:32;14.00;;;7.63;;
25870;SDS011;13689;48.590;7.752;2024-03-08T14:17:00;14.57;;;7.38;;
25870;SDS011;13689;48.590;7.752;2024-03-08T14:19:27;20.90;;;11.18;;
25870;SDS011;13689;48.590;7.752;2024-03-08T14:21:53;18.77;;;9.18;;
25870;SDS011;13689;48.590;7.752;2024-03-08T14:24:19;19.85;;;9.27;;
25870;SDS011;13689;48.590;7.752;2024-03-08T14:26:45;8.68;;;4.70;;
25870;SDS011;13689;48.590;7.752;2024-03-08T14:29:13;16.83;;;8.32;;
25870;SDS011;13689;48.590;7.752;2024-03-08T14:31:39;22.27;;;11.00;;
25870;SDS011;13689;48.590;7.752;2024-03-08T14:34:06;21.33;;;10.57;;
25870;SDS011;13689;48.590;7.752;2024-03-08T14:36:32;23.27;;;7.10;;
25870;SDS011;13689;48.590;7.752;2024-03-08T14:38:58;18.40;;;10.23;;
25870;SDS011;13689;48.590;7.752;2024-03-08T14:41:23;16.92;;;9.20;;
25870;SDS011;13689;48.590;7.752;2024-03-08T14:43:49;21.60;;;11.52;;
25870;SDS011;13689;48.590;7.752;2024-03-08T14:46:17;13.68;;;7.28;;
25870;SDS011;13689;48.590;7.752;2024-03-08T14:48:46;16.67;;;8.45;;
25870;SDS011;13689;48.590;7.752;2024-03-08T14:51:12;21.52;;;10.65;;
25870;SDS011;13689;48.590;7.752;2024-03-08T14:53:42;20.40;;;9.55;;
25870;SDS011;13689;48.590;7.752;2024-03-08T14:56:10;11.70;;;5.78;;
25870;SDS011;13689;48.590;7.752;2024-03-08T14:58:41;13.20;;;7.28;;
25870;SDS011;13689;48.590;7.752;2024-03-08T15:01:08;14.30;;;7.70;;
25870;SDS011;13689;48.590;7.752;2024-03-08T15:03:40;21.38;;;10.57;;